createdAt,value
2023-02-11T00:00:04.209Z,25.08
2023-02-11T00:02:33.866Z,26.90
2023-02-11T00:05:02.613Z,26.00
2023-02-11T00:07:31.008Z,22.85
2023-02-11T00:09:58.963Z,24.48
2023-02-11T00:12:27.061Z,30.45
2023-02-11T00:14:56.370Z,29.77
2023-02-11T00:17:24.305Z,21.42
2023-02-11T00:19:53.273Z,22.90
2023-02-11T00:22:21.419Z,27.40
2023-02-11T00:24:49.521Z,24.02
2023-02-11T00:27:17.486Z,31.50
2023-02-11T00:29:46.158Z,27.52
2023-02-11T00:32:15.465Z,28.48
2023-02-11T00:34:43.669Z,27.70
2023-02-11T00:37:13.625Z,27.00
2023-02-11T00:39:43.082Z,35.15
2023-02-11T00:42:15.138Z,33.25
2023-02-11T00:44:43.289Z,22.13
2023-02-11T00:47:11.228Z,31.98
2023-02-11T00:49:41.255Z,31.40
2023-02-11T00:52:09.281Z,33.00
2023-02-11T00:54:37.279Z,36.75
2023-02-11T00:57:05.425Z,24.88
2023-02-11T00:59:33.504Z,37.80
2023-02-11T01:02:02.710Z,34.97
2023-02-11T01:04:30.732Z,21.63
2023-02-11T01:07:00.118Z,31.80
2023-02-11T01:09:27.967Z,23.13
2023-02-11T01:11:56.089Z,29.25
2023-02-11T01:14:24.319Z,33.03
2023-02-11T01:16:52.519Z,27.30
2023-02-11T01:19:22.447Z,30.88
2023-02-11T01:21:50.690Z,31.15
2023-02-11T01:24:20.278Z,30.70
2023-02-11T01:26:48.192Z,27.92
2023-02-11T01:29:16.071Z,33.00
2023-02-11T01:31:44.108Z,30.00
2023-02-11T01:34:12.090Z,24.63
2023-02-11T01:36:40.069Z,30.23
2023-02-11T01:39:08.562Z,31.75
2023-02-11T01:41:38.286Z,31.77
2023-02-11T01:44:30.557Z,26.90
2023-02-11T01:46:58.948Z,32.50
2023-02-11T01:49:31.040Z,33.78
2023-02-11T01:52:02.989Z,32.30
2023-02-11T01:54:52.763Z,21.58
2023-02-11T01:57:27.210Z,29.73
2023-02-11T02:00:08.445Z,30.52
2023-02-11T02:02:51.400Z,35.28
2023-02-11T02:05:27.303Z,38.80
2023-02-11T02:08:01.748Z,35.80
2023-02-11T02:10:31.265Z,31.15
2023-02-11T02:13:01.579Z,29.60
2023-02-11T02:15:32.877Z,28.63
2023-02-11T02:18:07.612Z,21.52
2023-02-11T02:21:23.404Z,28.95
2023-02-11T02:24:28.652Z,23.73
2023-02-11T02:27:24.886Z,34.72
2023-02-11T02:30:29.881Z,30.85
2023-02-11T02:33:21.919Z,24.13
2023-02-11T02:35:59.364Z,28.67
2023-02-11T02:38:32.509Z,26.33
2023-02-11T02:41:05.234Z,25.70
2023-02-11T02:43:35.436Z,23.42
2023-02-11T02:46:15.264Z,32.15
2023-02-11T02:48:45.821Z,26.38
2023-02-11T02:51:39.756Z,24.85
2023-02-11T02:54:33.297Z,28.27
2023-02-11T02:57:12.535Z,26.05
2023-02-11T02:59:51.450Z,28.60
2023-02-11T03:02:25.836Z,28.60
2023-02-11T03:05:03.003Z,31.10
2023-02-11T03:07:38.480Z,26.88
2023-02-11T03:10:10.232Z,23.85
2023-02-11T03:12:40.120Z,27.77
2023-02-11T03:15:09.245Z,29.60
2023-02-11T03:17:39.954Z,24.38
2023-02-11T03:20:13.952Z,27.95
2023-02-11T03:22:48.772Z,28.00
2023-02-11T03:25:17.713Z,30.98
2023-02-11T03:27:53.144Z,28.02
2023-02-11T03:30:26.483Z,26.33
2023-02-11T03:33:01.952Z,33.47
2023-02-11T03:35:37.037Z,25.92
2023-02-11T03:38:09.925Z,30.33
2023-02-11T03:40:40.318Z,35.60
2023-02-11T03:43:13.167Z,24.40
2023-02-11T03:45:41.533Z,30.42
2023-02-11T03:48:15.278Z,36.13
2023-02-11T03:50:47.572Z,26.88
2023-02-11T03:53:16.260Z,24.45
2023-02-11T03:55:45.508Z,33.30
2023-02-11T03:58:13.618Z,30.50
2023-02-11T04:00:43.665Z,27.08
2023-02-11T04:03:13.049Z,32.70
2023-02-11T04:05:41.795Z,24.02
2023-02-11T04:08:11.080Z,27.60
2023-02-11T04:10:39.038Z,28.73
2023-02-11T04:13:07.996Z,22.98
2023-02-11T04:15:35.866Z,23.77
2023-02-11T04:18:03.789Z,30.38
2023-02-11T04:20:31.799Z,22.73
2023-02-11T04:22:59.658Z,27.67
2023-02-11T04:25:29.201Z,32.78
2023-02-11T04:27:57.180Z,26.48
2023-02-11T04:30:25.156Z,32.38
2023-02-11T04:32:54.204Z,26.98
2023-02-11T04:35:22.737Z,29.65
2023-02-11T04:37:50.635Z,33.38
2023-02-11T04:40:18.790Z,23.05
2023-02-11T04:42:48.298Z,24.52
2023-02-11T04:45:16.279Z,25.50
2023-02-11T04:47:44.211Z,26.13
2023-02-11T04:50:12.138Z,25.50
2023-02-11T04:52:40.130Z,21.60
2023-02-11T04:55:08.505Z,23.05
2023-02-11T04:57:36.484Z,26.08
2023-02-11T05:00:07.415Z,25.33
2023-02-11T05:02:35.281Z,27.42
2023-02-11T05:05:03.223Z,29.40
2023-02-11T05:07:31.112Z,24.33
2023-02-11T05:09:58.984Z,27.83
2023-02-11T05:12:26.932Z,18.35
2023-02-11T05:14:54.868Z,23.40
2023-02-11T05:17:24.265Z,27.63
2023-02-11T05:19:52.131Z,18.65
2023-02-11T05:22:21.284Z,24.27
2023-02-11T05:24:49.563Z,30.58
2023-02-11T05:27:17.691Z,20.67
2023-02-11T05:29:46.112Z,15.70
2023-02-11T05:32:13.961Z,20.23
2023-02-11T05:34:43.287Z,18.25
2023-02-11T05:37:11.220Z,23.50
2023-02-11T05:39:39.235Z,17.70
2023-02-11T05:42:07.469Z,20.10
2023-02-11T05:44:35.377Z,26.27
2023-02-11T05:47:03.314Z,24.38
2023-02-11T05:49:31.559Z,25.45
2023-02-11T05:52:00.743Z,22.70
2023-02-11T05:54:28.667Z,20.92
2023-02-11T05:56:56.531Z,26.60
2023-02-11T05:59:24.659Z,19.15
2023-02-11T06:01:52.616Z,20.35
2023-02-11T06:04:20.510Z,27.05
2023-02-11T06:06:48.434Z,28.35
2023-02-11T06:09:17.665Z,23.15
2023-02-11T06:11:45.555Z,24.95
2023-02-11T06:14:14.339Z,20.85
2023-02-11T06:16:42.207Z,19.88
2023-02-11T06:19:10.164Z,21.35
2023-02-11T06:21:43.898Z,20.38
2023-02-11T06:24:12.549Z,20.80
2023-02-11T06:26:41.902Z,20.88
2023-02-11T06:29:09.985Z,17.40
2023-02-11T06:31:39.009Z,17.98
2023-02-11T06:34:07.096Z,26.52
2023-02-11T06:36:35.095Z,20.23
2023-02-11T06:39:03.072Z,20.10
2023-02-11T06:41:31.290Z,25.38
2023-02-11T06:44:00.751Z,21.05
2023-02-11T06:46:28.717Z,20.10
2023-02-11T06:48:56.651Z,25.40
2023-02-11T06:51:25.608Z,30.20
2023-02-11T06:53:53.570Z,25.85
2023-02-11T06:56:23.452Z,20.45
2023-02-11T06:58:54.633Z,25.33
2023-02-11T07:01:25.511Z,29.05
2023-02-11T07:03:53.579Z,23.42
2023-02-11T07:06:25.718Z,30.25
2023-02-11T07:08:54.096Z,27.85
2023-02-11T07:11:25.313Z,33.00
2023-02-11T07:13:54.980Z,29.80
2023-02-11T07:16:24.660Z,26.73
2023-02-11T07:18:52.656Z,32.35
2023-02-11T07:21:22.480Z,28.92
2023-02-11T07:23:50.636Z,28.73
2023-02-11T07:26:21.186Z,31.98
2023-02-11T07:28:49.343Z,28.20
2023-02-11T07:31:18.890Z,25.83
2023-02-11T07:33:48.418Z,31.42
2023-02-11T07:36:17.429Z,26.45
2023-02-11T07:38:46.057Z,29.95
2023-02-11T07:41:16.845Z,32.97
2023-02-11T07:43:45.740Z,35.72
2023-02-11T07:46:15.782Z,34.65
2023-02-11T07:48:43.842Z,29.98
2023-02-11T07:51:15.467Z,23.48
2023-02-11T07:53:44.764Z,36.05
2023-02-11T07:56:14.549Z,35.28
2023-02-11T07:58:43.663Z,32.70
2023-02-11T08:01:16.447Z,24.85
2023-02-11T08:03:47.506Z,30.42
2023-02-11T08:06:20.249Z,31.13
2023-02-11T08:08:48.978Z,35.20
2023-02-11T08:11:20.167Z,31.70
2023-02-11T08:13:48.560Z,35.03
2023-02-11T08:16:22.411Z,28.08
2023-02-11T08:18:52.020Z,34.92
2023-02-11T08:21:21.665Z,36.05
2023-02-11T08:23:50.440Z,38.33
2023-02-11T08:26:20.676Z,43.17
2023-02-11T08:28:51.311Z,39.35
2023-02-11T08:31:21.238Z,28.50
2023-02-11T08:33:49.838Z,41.70
2023-02-11T08:36:19.726Z,37.40
2023-02-11T08:38:49.212Z,34.17
2023-02-11T08:41:18.278Z,28.75
2023-02-11T08:43:47.180Z,39.20
2023-02-11T08:46:17.344Z,31.00
2023-02-11T08:48:46.195Z,30.05
2023-02-11T08:51:16.890Z,34.20
2023-02-11T08:53:45.392Z,35.58
2023-02-11T08:56:19.502Z,37.00
2023-02-11T08:58:49.356Z,31.33
2023-02-11T09:01:22.324Z,35.33
2023-02-11T09:03:53.860Z,38.78
2023-02-11T09:06:24.213Z,37.03
2023-02-11T09:08:54.510Z,36.33
2023-02-11T09:11:29.313Z,41.30
2023-02-11T09:13:57.265Z,37.00
2023-02-11T09:16:27.518Z,43.97
2023-02-11T09:18:57.863Z,31.63
2023-02-11T09:21:26.279Z,33.70
2023-02-11T09:23:54.388Z,35.78
2023-02-11T09:26:25.289Z,43.08
2023-02-11T09:28:53.661Z,32.67
2023-02-11T09:31:23.886Z,37.67
2023-02-11T09:33:55.218Z,41.42
2023-02-11T09:36:25.749Z,34.50
2023-02-11T09:38:54.218Z,50.60
2023-02-11T09:41:43.859Z,36.88
2023-02-11T09:44:53.536Z,40.50
2023-02-11T09:47:56.083Z,40.08
2023-02-11T09:50:58.753Z,41.65
2023-02-11T09:53:57.193Z,38.05
2023-02-11T09:59:24.301Z,40.75
2023-02-11T10:02:24.490Z,47.05
2023-02-11T10:08:27.714Z,38.42
2023-02-11T10:18:48.768Z,42.92
2023-02-11T10:21:46.611Z,41.55
2023-02-11T10:24:18.100Z,42.00
2023-02-11T10:26:51.561Z,48.10
2023-02-11T10:30:15.164Z,44.15
2023-02-11T10:33:00.245Z,43.65
2023-02-11T10:35:29.889Z,42.55
2023-02-11T10:38:04.709Z,41.35
2023-02-11T10:40:46.817Z,47.38
2023-02-11T10:43:22.271Z,41.22
2023-02-11T10:45:51.374Z,45.58
2023-02-11T10:48:50.591Z,52.22
2023-02-11T10:52:33.219Z,44.05
2023-02-11T10:55:26.112Z,40.50
2023-02-11T10:57:58.882Z,48.30
2023-02-11T11:01:23.408Z,46.63
2023-02-11T11:04:06.006Z,47.42
2023-02-11T11:08:14.275Z,44.92
2023-02-11T11:14:38.953Z,31.63
2023-02-11T11:21:03.161Z,35.50
2023-02-11T11:23:52.637Z,39.05
2023-02-11T11:27:37.907Z,30.63
2023-02-11T11:30:23.092Z,40.08
2023-02-11T11:32:57.233Z,40.58
2023-02-11T11:35:27.887Z,31.85
2023-02-11T11:38:01.766Z,31.13
2023-02-11T11:40:32.006Z,40.20
2023-02-11T11:43:15.952Z,35.50
2023-02-11T11:45:55.597Z,37.10
2023-02-11T11:48:28.649Z,49.97
2023-02-11T11:51:00.552Z,48.88
2023-02-11T11:53:38.785Z,44.90
2023-02-11T11:56:10.161Z,33.47
2023-02-11T11:58:39.727Z,32.25
2023-02-11T12:01:18.141Z,43.33
2023-02-11T12:04:25.365Z,37.20
2023-02-11T12:07:03.746Z,43.65
2023-02-11T12:09:41.769Z,37.67
2023-02-11T12:12:21.544Z,35.40
2023-02-11T12:15:04.568Z,36.92
2023-02-11T12:17:52.315Z,31.05
2023-02-11T12:20:32.694Z,39.92
2023-02-11T12:23:22.659Z,37.90
2023-02-11T12:25:57.940Z,41.58
2023-02-11T12:28:38.354Z,35.75
2023-02-11T12:31:22.064Z,32.10
2023-02-11T12:34:28.274Z,35.78
2023-02-11T12:37:07.537Z,30.48
2023-02-11T12:39:45.034Z,33.05
2023-02-11T12:43:02.602Z,29.33
2023-02-11T12:45:47.879Z,34.78
2023-02-11T12:49:01.002Z,43.70
2023-02-11T12:51:52.120Z,29.63
2023-02-11T12:54:25.882Z,33.83
2023-02-11T12:56:59.207Z,29.02
2023-02-11T12:59:35.801Z,28.05
2023-02-11T13:02:18.461Z,21.85
2023-02-11T13:04:51.426Z,22.88
2023-02-11T13:07:26.975Z,24.85
2023-02-11T13:10:01.992Z,19.67
2023-02-11T13:12:50.849Z,24.20
2023-02-11T13:15:19.048Z,26.00
2023-02-11T13:17:55.681Z,24.95
2023-02-11T13:20:36.385Z,27.23
2023-02-11T13:23:12.298Z,28.25
2023-02-11T13:25:49.095Z,27.88
2023-02-11T13:28:32.250Z,25.52
2023-02-11T13:31:03.431Z,23.45
2023-02-11T13:33:37.496Z,26.08
2023-02-11T13:36:15.640Z,25.48
2023-02-11T13:38:54.520Z,20.08
2023-02-11T13:41:27.949Z,19.45
2023-02-11T13:44:05.194Z,25.98
2023-02-11T13:46:50.760Z,27.65
2023-02-11T13:49:22.202Z,26.48
2023-02-11T13:51:51.122Z,25.55
2023-02-11T13:54:29.411Z,29.75
2023-02-11T13:57:26.320Z,26.35
2023-02-11T13:59:56.036Z,24.80
2023-02-11T14:02:45.904Z,29.45
2023-02-11T14:05:49.826Z,24.33
2023-02-11T14:08:43.777Z,27.00
2023-02-11T14:11:44.787Z,37.50
2023-02-11T14:14:25.503Z,30.35
2023-02-11T14:17:31.722Z,24.30
2023-02-11T14:20:00.430Z,32.65
2023-02-11T14:22:31.632Z,24.52
2023-02-11T14:25:01.840Z,26.80
2023-02-11T14:27:38.122Z,29.40
2023-02-11T14:30:30.366Z,29.17
2023-02-11T14:33:24.592Z,33.53
2023-02-11T14:36:01.890Z,27.90
2023-02-11T14:38:40.392Z,37.95
2023-02-11T14:41:11.926Z,32.90
2023-02-11T14:43:45.303Z,27.92
2023-02-11T14:46:15.804Z,27.05
2023-02-11T14:48:47.697Z,31.05
2023-02-11T14:51:19.750Z,30.17
2023-02-11T14:53:52.678Z,25.85
2023-02-11T14:56:24.583Z,32.22
2023-02-11T14:58:55.030Z,26.35
2023-02-11T15:01:30.164Z,29.80
2023-02-11T15:03:58.714Z,27.38
2023-02-11T15:06:31.519Z,28.50
2023-02-11T15:09:03.585Z,22.27
2023-02-11T15:11:34.958Z,27.25
2023-02-11T15:14:11.932Z,32.20
2023-02-11T15:16:43.825Z,21.92
2023-02-11T15:19:24.363Z,30.13
2023-02-11T15:21:53.833Z,24.92
2023-02-11T15:24:30.600Z,28.48
2023-02-11T15:27:00.352Z,25.63
2023-02-11T15:29:37.574Z,29.40
2023-02-11T15:32:08.024Z,21.33
2023-02-11T15:34:36.897Z,32.80
2023-02-11T15:37:05.399Z,29.35
2023-02-11T15:39:37.419Z,34.28
2023-02-11T15:42:20.233Z,27.98
2023-02-11T15:44:56.604Z,35.60
2023-02-11T15:47:27.888Z,38.72
2023-02-11T15:49:56.523Z,46.08
2023-02-11T15:52:26.975Z,26.48
2023-02-11T15:54:57.252Z,42.83
2023-02-11T15:57:27.613Z,65.88
2023-02-11T15:59:58.704Z,64.43
2023-02-11T16:02:31.463Z,81.15
2023-02-11T16:05:01.250Z,66.38
2023-02-11T16:07:41.019Z,50.30
2023-02-11T16:10:24.333Z,45.38
2023-02-11T16:12:54.698Z,46.78
2023-02-11T16:15:45.005Z,75.18
2023-02-11T16:18:37.692Z,50.60
2023-02-11T16:21:08.281Z,90.95
2023-02-11T16:23:39.016Z,76.90
2023-02-11T16:26:13.325Z,72.72
2023-02-11T16:28:42.029Z,52.85
2023-02-11T16:31:11.441Z,43.75
2023-02-11T16:33:39.554Z,79.72
2023-02-11T16:36:13.006Z,56.45
2023-02-11T16:38:40.928Z,55.85
2023-02-11T16:41:11.781Z,83.07
2023-02-11T16:43:40.181Z,46.30
2023-02-11T16:46:09.240Z,101.07
2023-02-11T16:48:39.119Z,91.10
2023-02-11T16:51:09.225Z,50.60
2023-02-11T16:53:37.241Z,36.15
2023-02-11T16:56:05.764Z,45.30
2023-02-11T16:58:33.825Z,40.33
2023-02-11T17:01:02.061Z,46.22
2023-02-11T17:03:31.332Z,38.40
2023-02-11T17:06:02.958Z,36.50
2023-02-11T17:08:31.147Z,35.78
2023-02-11T17:10:59.073Z,43.40
2023-02-11T17:13:27.192Z,41.83
2023-02-11T17:15:55.405Z,50.67
2023-02-11T17:18:23.493Z,47.90
2023-02-11T17:20:51.485Z,49.55
2023-02-11T17:23:20.743Z,53.95
2023-02-11T17:25:56.368Z,77.95
2023-02-11T17:28:24.366Z,53.83
2023-02-11T17:30:52.337Z,37.35
2023-02-11T17:33:21.534Z,44.15
2023-02-11T17:35:49.699Z,36.55
2023-02-11T17:38:20.284Z,34.25
2023-02-11T17:40:57.286Z,34.78
2023-02-11T17:43:25.591Z,39.50
2023-02-11T17:45:54.889Z,36.85
2023-02-11T17:48:23.277Z,37.53
2023-02-11T17:50:51.446Z,35.00
2023-02-11T17:53:20.652Z,45.03
2023-02-11T17:55:49.908Z,43.13
2023-02-11T17:58:18.052Z,42.35
2023-02-11T18:00:46.683Z,37.63
2023-02-11T18:03:14.623Z,38.45
2023-02-11T18:05:42.524Z,47.05
2023-02-11T18:08:11.518Z,42.83
2023-02-11T18:10:42.181Z,38.83
2023-02-11T18:13:10.092Z,36.72
2023-02-11T18:15:38.091Z,43.72
2023-02-11T18:18:06.093Z,44.22
2023-02-11T18:20:34.321Z,45.85
2023-02-11T18:23:02.549Z,38.20
2023-02-11T18:25:30.890Z,41.25
2023-02-11T18:28:00.201Z,34.90
2023-02-11T18:30:28.997Z,37.45
2023-02-11T18:32:57.202Z,49.10
2023-02-11T18:35:25.241Z,57.17
2023-02-11T18:37:53.481Z,48.40
2023-02-11T18:40:21.564Z,46.60
2023-02-11T18:42:49.748Z,37.88
2023-02-11T18:45:19.366Z,37.45
2023-02-11T18:47:47.560Z,55.45
2023-02-11T18:50:16.061Z,47.08
2023-02-11T18:52:44.004Z,40.22
2023-02-11T18:55:11.917Z,54.00
2023-02-11T18:57:40.063Z,57.50
2023-02-11T19:00:10.181Z,64.72
2023-02-11T19:02:39.629Z,43.08
2023-02-11T19:05:08.229Z,73.50
2023-02-11T19:07:36.275Z,49.38
2023-02-11T19:10:04.785Z,39.58
2023-02-11T19:12:33.105Z,47.75
2023-02-11T19:15:01.745Z,62.90
2023-02-11T19:17:29.850Z,93.53
2023-02-11T19:19:59.683Z,58.25
2023-02-11T19:22:28.301Z,43.05
2023-02-11T19:24:56.218Z,43.40
2023-02-11T19:27:24.100Z,46.30
2023-02-11T19:29:52.786Z,23.30
2023-02-11T19:32:20.760Z,23.55
2023-02-11T19:34:48.821Z,35.90
2023-02-11T19:37:18.176Z,40.15
2023-02-11T19:39:46.390Z,45.70
2023-02-11T19:42:14.844Z,29.92
2023-02-11T19:44:43.262Z,55.47
2023-02-11T19:47:12.590Z,33.42
2023-02-11T19:49:40.956Z,23.67
2023-02-11T19:52:09.480Z,23.90
2023-02-11T19:54:39.136Z,25.35
2023-02-11T19:57:07.193Z,22.77
2023-02-11T19:59:35.841Z,25.15
2023-02-11T20:02:04.049Z,22.98
2023-02-11T20:04:33.911Z,24.95
2023-02-11T20:07:02.556Z,25.30
2023-02-11T20:09:31.807Z,25.70
2023-02-11T20:12:02.291Z,19.95
2023-02-11T20:14:30.481Z,30.33
2023-02-11T20:16:58.777Z,26.63
2023-02-11T20:19:27.956Z,19.58
2023-02-11T20:21:56.321Z,19.70
2023-02-11T20:24:27.386Z,18.20
2023-02-11T20:26:58.912Z,18.90
2023-02-11T20:29:31.123Z,15.98
2023-02-11T20:31:59.319Z,18.52
2023-02-11T20:34:28.126Z,15.45
2023-02-11T20:36:56.752Z,12.48
2023-02-11T20:39:26.923Z,16.13
2023-02-11T20:41:56.690Z,12.02
2023-02-11T20:44:25.530Z,10.50
2023-02-11T20:46:55.707Z,10.60
2023-02-11T20:49:25.479Z,10.10
2023-02-11T20:51:54.396Z,25.58
2023-02-11T20:54:24.985Z,9.63
2023-02-11T20:56:55.462Z,8.00
2023-02-11T20:59:26.933Z,13.52
2023-02-11T21:01:58.313Z,13.80
2023-02-11T21:04:28.412Z,13.50
2023-02-11T21:06:58.523Z,8.98
2023-02-11T21:09:34.436Z,13.90
2023-02-11T21:12:03.831Z,14.25
2023-02-11T21:14:53.694Z,21.63
2023-02-11T21:17:28.550Z,11.15
2023-02-11T21:20:01.715Z,6.88
2023-02-11T21:22:30.950Z,9.65
2023-02-11T21:25:06.244Z,8.98
2023-02-11T21:27:34.701Z,9.75
2023-02-11T21:30:14.808Z,47.55
2023-02-11T21:32:50.936Z,59.80
2023-02-11T21:35:22.264Z,20.85
2023-02-11T21:38:13.038Z,42.80
2023-02-11T21:40:44.118Z,13.60
2023-02-11T21:43:13.900Z,17.85
2023-02-11T21:45:48.472Z,15.70
2023-02-11T21:48:19.181Z,15.18
2023-02-11T21:50:50.732Z,20.23
2023-02-11T21:53:26.926Z,34.25
2023-02-11T21:56:05.902Z,12.52
2023-02-11T21:58:35.491Z,10.45
2023-02-11T22:01:11.792Z,9.70
2023-02-11T22:03:47.182Z,7.95
2023-02-11T22:06:19.097Z,5.50
2023-02-11T22:08:51.086Z,9.75
2023-02-11T22:11:23.406Z,8.23
2023-02-11T22:13:56.560Z,18.45
2023-02-11T22:16:26.036Z,13.52
2023-02-11T22:18:58.790Z,18.95
2023-02-11T22:21:37.238Z,14.77
2023-02-11T22:24:06.299Z,19.95
2023-02-11T22:26:34.625Z,37.92
2023-02-11T22:29:02.818Z,28.58
2023-02-11T22:31:40.632Z,22.13
2023-02-11T22:34:12.532Z,21.00
2023-02-11T22:36:42.734Z,49.72
2023-02-11T22:39:14.311Z,24.50
2023-02-11T22:41:42.824Z,8.43
2023-02-11T22:44:11.026Z,14.88
2023-02-11T22:46:39.351Z,27.48
2023-02-11T22:49:08.383Z,42.97
2023-02-11T22:51:37.688Z,31.60
2023-02-11T22:54:08.442Z,21.33
2023-02-11T22:56:37.546Z,7.47
2023-02-11T22:59:07.799Z,18.45
2023-02-11T23:01:36.859Z,19.10
2023-02-11T23:04:07.778Z,12.88
2023-02-11T23:06:38.606Z,7.60
2023-02-11T23:09:07.585Z,14.18
2023-02-11T23:11:36.555Z,9.18
2023-02-11T23:14:05.335Z,11.45
2023-02-11T23:16:36.202Z,9.82
2023-02-11T23:19:07.147Z,9.38
2023-02-11T23:21:39.363Z,4.43
2023-02-11T23:24:09.945Z,12.13
2023-02-11T23:26:39.880Z,6.82
2023-02-11T23:29:09.202Z,5.03
2023-02-11T23:31:39.884Z,8.60
2023-02-11T23:34:09.399Z,4.68
2023-02-11T23:36:38.935Z,4.90
2023-02-11T23:39:07.615Z,3.95
2023-02-11T23:41:36.221Z,4.72
2023-02-11T23:44:04.197Z,3.80
2023-02-11T23:46:32.142Z,6.40
2023-02-11T23:49:01.116Z,7.28
2023-02-11T23:51:29.905Z,5.18
2023-02-11T23:53:59.912Z,7.40
2023-02-11T23:56:29.390Z,5.43
2023-02-11T23:58:58.936Z,4.25
